Portada
METAR-TAF:

METAR-TAF

Aeropuertos :

Aeropuerto Internacional de Pohnpei

Pohnpei, Micronesia

latitud: 06-59N, longitud: 158-12E, altitud: 2 m

Observación

El informe se hizo hace 2 horas y 39 minutos, a las 04:55 UTC
Viento 10 kt del noreste
Temperatura 32°C
Humedad 71%
Presión 1007 hPa
Visibilidad: 24.1 km
Nubes dispersas a una altura de 1800 ft
Nubes dispersas a una altura de 30000 ft

METAR: PTPN 160455Z 05010KT 15SM SCT018 SCT300 32/26 A2975 RMK LAST

Hora: 18:34 (07:34 UTC)

Pronóstico

El informe se hizo hace 8 horas y 7 minutos, a las 23:27 UTC
Pronóstico válido del 16 a las 00 UTC al 16 a las 24 UTC
Viento 8 kt del este-noreste
Visibilidad: 10 km
Nubes dispersas a una altura de 1800 ft
Nubes dispersas a una altura de 5000 ft
Cielo nuboso a una altura de 11000 ft
chaparrones en las proximidades,

TAF: PTPN 152327Z 1600/1624 07008KT P6SM VCSH SCT018 SCT050 BKN110

Observaciones y pronósticos meteorológicos de más de 4000 aeropuertos (mensajes METAR y TAF).

Los puntos amarillos y rojos representan las estaciones disponibles.

Ponga el ratón en el punto deseado para ver el nombre de la estación.

Haga clic para ver las observaciones y los pronósticos meteorológicos.

Para cambiar el mapa : haga clic en los botones verdes con una cruz de color negro para hacer un zoom, en el botón verde con un guión para alejar o en las flechas verdes para mapas adyacentes.


METAR-TAF: